CSE3 weather

Public forecast

Using degrees Celsius for public forecast. Weather courtesy of forecast.io.

Closest aviation weather report (METAR) to Lourdes-De-Joliette Airport

Closest report is Trois-Rivières Airport, 35.3 nm (65.4 km) ENE. Retrieved 2020/08/15 04:00 UTC (29 minutes ago):

CYRQ 150400Z AUTO 05006KT 9SM CLR 18/13 A3014 RMK SLP207 DENSITY ALT 300FT

Closest aviation forecast (TAF) to Lourdes-De-Joliette Airport

Closest forecast is Trois-Rivières Airport, 35.3 nm (65.4 km) ENE. Retrieved 2020-08-15 02:00 UTC (2 hours ago):

TAF CYRQ 150138Z 1502/1514 05005KT P6SM SKC BECMG 1510/1512 07012KT RMK FCST BASED ON AUTO OBS NXT FCST BY 150800Z